Time;durP1;ratioP1;P1;durP2;ratioP2;P2;SDS_P1;SDS_P2;PMS_P1;PMS_P2;Temp;Humidity;BMP_temperature;BMP_pressure;BME280_temperature;BME280_humidity;BME280_pressure;Samples;Min_cycle;Max_cycle;Signal;HPM_P1;HPM_P2
2023/04/18 00:02:21;;;;;;;12.38;2.92;;;;;;;8.81;45.99;100346.94;4953075;28;20043;-57
2023/04/18 00:04:53;;;;;;;13.95;2.70;;;;;;;8.78;45.20;100344.34;4952489;28;20397;-55
2023/04/18 00:07:23;;;;;;;11.90;2.53;;;;;;;8.88;45.83;100346.00;4952889;28;20051;-55
2023/04/18 00:09:56;;;;;;;15.43;3.22;;;;;;;8.60;44.50;100335.81;4944338;28;20131;-55
2023/04/18 00:12:26;;;;;;;16.75;3.60;;;;;;;8.77;46.61;100333.06;4942554;28;20049;-57
2023/04/18 00:14:57;;;;;;;16.55;3.47;;;;;;;8.91;44.41;100346.00;4946929;28;20071;-54
2023/04/18 00:17:29;;;;;;;10.88;3.17;;;;;;;8.91;44.40;100340.78;4953573;28;20048;-55
2023/04/18 00:20:01;;;;;;;14.85;3.03;;;;;;;9.17;45.64;100343.16;4938746;28;20052;-56
2023/04/18 00:22:31;;;;;;;16.75;3.08;;;;;;;9.34;44.13;100340.41;4931127;28;20052;-57
2023/04/18 00:25:03;;;;;;;11.57;3.15;;;;;;;9.44;44.16;100331.59;4930539;28;20390;-55
2023/04/18 00:27:34;;;;;;;13.90;2.72;;;;;;;9.41;43.71;100336.84;4931527;28;20048;-56
2023/04/18 00:30:05;;;;;;;14.65;3.25;;;;;;;9.39;44.05;100338.59;4933642;28;20085;-53
2023/04/18 00:32:35;;;;;;;17.58;2.90;;;;;;;9.47;43.13;100335.91;4930887;28;20052;-56
2023/04/18 00:35:06;;;;;;;11.25;2.72;;;;;;;9.68;42.49;100334.78;4939143;28;20056;-56
2023/04/18 00:37:37;;;;;;;12.30;2.67;;;;;;;9.70;41.78;100338.25;4933566;28;20101;-55
2023/04/18 00:40:10;;;;;;;18.83;2.88;;;;;;;9.71;41.23;100329.56;4933800;28;20044;-56
2023/04/18 00:42:41;;;;;;;10.55;2.67;;;;;;;9.98;44.14;100327.47;4933145;28;20116;-56
2023/04/18 00:45:12;;;;;;;10.95;2.97;;;;;;;10.12;42.90;100331.63;4944374;28;20539;-55
2023/04/18 00:47:42;;;;;;;8.43;2.47;;;;;;;9.97;40.68;100328.38;4952965;28;20369;-56
2023/04/18 00:50:13;;;;;;;10.20;2.40;;;;;;;9.87;41.01;100330.22;4951762;28;20055;-55
2023/04/18 00:52:45;;;;;;;14.75;2.80;;;;;;;9.61;40.27;100333.13;4952481;28;20044;-55
2023/04/18 00:55:18;;;;;;;17.95;2.97;;;;;;;9.42;40.55;100330.75;4948322;28;20071;-56
2023/04/18 00:57:48;;;;;;;12.55;2.60;;;;;;;9.39;40.79;100327.31;4952892;28;20074;-55
2023/04/18 01:00:19;;;;;;;8.88;2.22;;;;;;;9.46;40.24;100335.06;4935572;28;20383;-55
2023/04/18 01:02:51;;;;;;;11.80;2.63;;;;;;;9.31;40.31;100340.44;4930296;28;20148;-57
2023/04/18 01:05:23;;;;;;;9.52;2.47;;;;;;;9.45;40.55;100333.31;4928389;28;20043;-56
2023/04/18 01:07:57;;;;;;;11.25;2.80;;;;;;;9.61;40.21;100327.91;4928826;28;20498;-56
2023/04/18 01:10:31;;;;;;;12.48;2.40;;;;;;;9.64;40.29;100333.13;4937587;28;20058;-57
2023/04/18 01:13:18;;;;;;;9.73;2.47;;;;;;;9.71;39.83;100319.13;4951645;28;20502;-57
2023/04/18 01:15:50;;;;;;;9.75;2.15;;;;;;;9.79;39.84;100327.72;4918830;28;20044;-56
2023/04/18 01:18:21;;;;;;;11.23;2.10;;;;;;;9.70;40.15;100330.44;4947484;28;20043;-55
2023/04/18 01:20:52;;;;;;;7.28;1.92;;;;;;;9.94;40.98;100330.13;4947785;28;20066;-54
2023/04/18 01:23:23;;;;;;;13.30;2.35;;;;;;;9.88;40.15;100332.84;4948188;28;20767;-56
2023/04/18 01:25:55;;;;;;;15.48;3.03;;;;;;;10.21;41.54;100330.66;4958432;28;20051;-58
2023/04/18 01:28:26;;;;;;;14.35;4.38;;;;;;;10.55;42.49;100330.19;4945148;28;20053;-57
2023/04/18 01:30:56;;;;;;;11.73;2.47;;;;;;;10.65;40.34;100320.47;4948766;28;21193;-58
2023/04/18 01:33:27;;;;;;;11.70;2.45;;;;;;;10.62;40.41;100326.59;4948165;28;20047;-57
2023/04/18 01:35:57;;;;;;;13.65;2.78;;;;;;;10.61;39.13;100308.31;4947061;28;20040;-56
2023/04/18 01:38:28;;;;;;;14.38;2.60;;;;;;;10.35;38.68;100307.84;4929089;28;20471;-57
2023/04/18 01:41:01;;;;;;;10.02;3.03;;;;;;;10.25;39.80;100311.44;4929060;28;20117;-57
2023/04/18 01:43:31;;;;;;;11.73;3.10;;;;;;;10.23;39.33;100302.75;4938329;28;20100;-57
2023/04/18 01:46:01;;;;;;;11.32;2.10;;;;;;;10.24;39.10;100299.28;4928468;28;20143;-57
2023/04/18 01:48:32;;;;;;;12.63;2.72;;;;;;;10.47;41.14;100303.31;4928399;28;20645;-57
2023/04/18 01:51:02;;;;;;;11.55;2.83;;;;;;;10.78;41.64;100294.13;4928920;28;20139;-58
2023/04/18 01:53:33;;;;;;;14.25;3.05;;;;;;;10.89;40.81;100293.06;4928725;28;20082;-57
2023/04/18 01:56:05;;;;;;;13.98;3.17;;;;;;;11.04;40.14;100292.81;4928778;28;20536;-57
2023/04/18 01:58:36;;;;;;;14.52;3.15;;;;;;;11.32;40.49;100292.28;4923375;28;21465;-56
2023/04/18 02:01:06;;;;;;;10.70;2.97;;;;;;;11.30;38.66;100279.22;4932026;28;20064;-54
2023/04/18 02:03:37;;;;;;;8.18;2.33;;;;;;;11.59;40.15;100283.91;4940262;28;20127;-55
2023/04/18 02:06:09;;;;;;;11.65;2.65;;;;;;;11.62;37.72;100267.28;4945341;28;20684;-56
2023/04/18 02:08:39;;;;;;;14.90;2.88;;;;;;;11.40;37.68;100287.75;4946492;28;20054;-54
2023/04/18 02:11:11;;;;;;;10.85;2.78;;;;;;;11.28;37.26;100286.22;4948886;28;20058;-57
2023/04/18 02:13:41;;;;;;;15.60;2.58;;;;;;;11.22;36.63;100292.44;4939525;28;20377;-57
2023/04/18 02:16:13;;;;;;;10.35;3.00;;;;;;;11.28;38.11;100285.38;4946978;28;20055;-57
2023/04/18 02:18:44;;;;;;;13.48;2.67;;;;;;;11.30;37.39;100267.91;4946006;28;20054;-55
2023/04/18 02:21:15;;;;;;;14.50;2.83;;;;;;;11.56;38.10;100268.25;4947010;28;20448;-55
2023/04/18 02:23:45;;;;;;;9.25;1.98;;;;;;;11.68;37.21;100268.88;4945121;28;20542;-56
2023/04/18 02:26:17;;;;;;;16.55;2.58;;;;;;;11.66;36.17;100271.56;4953077;28;20422;-55
2023/04/18 02:28:47;;;;;;;9.15;2.30;;;;;;;11.56;35.91;100276.13;4947515;28;20074;-56
2023/04/18 02:31:18;;;;;;;16.75;4.75;;;;;;;11.48;36.88;100267.53;4947611;28;20047;-56
2023/04/18 02:33:48;;;;;;;14.55;3.47;;;;;;;11.65;36.60;100268.06;4945473;28;20051;-56
2023/04/18 02:36:20;;;;;;;14.85;3.00;;;;;;;11.73;36.86;100261.81;4942450;28;20070;-59
2023/04/18 02:38:50;;;;;;;14.23;2.65;;;;;;;11.57;37.04;100267.34;4947767;28;20051;-55
2023/04/18 02:41:23;;;;;;;12.02;3.60;;;;;;;11.68;37.78;100253.19;4948063;28;20054;-57
2023/04/18 02:43:53;;;;;;;15.60;2.60;;;;;;;11.66;36.33;100251.47;4931684;28;20048;-55
2023/04/18 02:46:23;;;;;;;10.75;2.97;;;;;;;11.65;37.27;100251.50;4928164;28;20067;-57
2023/04/18 02:48:54;;;;;;;11.15;3.25;;;;;;;11.61;37.37;100248.09;4930547;28;20055;-56
2023/04/18 02:51:25;;;;;;;8.63;2.72;;;;;;;11.65;37.63;100243.66;4936846;28;20125;-57
2023/04/18 02:53:56;;;;;;;8.68;2.65;;;;;;;11.87;37.93;100234.47;4923037;28;20045;-56
2023/04/18 02:56:28;;;;;;;12.27;2.90;;;;;;;12.04;37.53;100239.34;4934971;28;20052;-55
2023/04/18 02:58:58;;;;;;;11.57;2.65;;;;;;;11.95;36.54;100231.66;4937981;28;20082;-57
2023/04/18 03:01:29;;;;;;;8.73;2.40;;;;;;;12.05;37.61;100227.94;4931747;28;20055;-57
2023/04/18 03:03:59;;;;;;;13.90;2.75;;;;;;;12.16;38.02;100219.00;4932462;28;20058;-57
2023/04/18 03:06:30;;;;;;;11.85;6.82;;;;;;;12.15;37.38;100218.13;4933553;28;20048;-57
2023/04/18 03:09:01;;;;;;;13.03;4.33;;;;;;;12.31;37.59;100223.88;4933973;28;20059;-57
2023/04/18 03:11:33;;;;;;;10.57;2.75;;;;;;;12.19;36.52;100208.44;4932758;28;20297;-57
2023/04/18 03:14:04;;;;;;;10.47;2.73;;;;;;;12.02;36.14;100208.84;4932058;28;20886;-57
2023/04/18 03:16:35;;;;;;;9.95;2.67;;;;;;;11.88;36.18;100201.28;4932842;28;20282;-58
2023/04/18 03:19:05;;;;;;;8.07;2.75;;;;;;;11.77;37.64;100164.00;4930145;28;20113;-57
2023/04/18 03:21:39;;;;;;;13.13;2.83;;;;;;;12.06;36.54;100207.88;4936949;28;20049;-56
2023/04/18 03:24:10;;;;;;;10.00;2.40;;;;;;;11.97;36.65;100195.84;4932996;28;20056;-58
2023/04/18 03:26:42;;;;;;;14.77;2.97;;;;;;;11.86;36.03;100196.09;4934102;28;20101;-58
2023/04/18 03:29:13;;;;;;;11.80;3.08;;;;;;;11.80;36.46;100190.09;4936582;28;20043;-57
2023/04/18 03:31:43;;;;;;;10.13;2.60;;;;;;;11.93;36.51;100196.84;4936257;28;20450;-58
2023/04/18 03:34:14;;;;;;;13.00;2.47;;;;;;;12.20;37.59;100199.69;4936083;28;20104;-58
2023/04/18 03:36:45;;;;;;;10.60;2.60;;;;;;;12.28;36.52;100202.97;4935248;28;20048;-57
2023/04/18 03:39:16;;;;;;;12.88;3.17;;;;;;;12.17;36.23;100190.13;4938460;28;20060;-56
2023/04/18 03:41:51;;;;;;;15.90;3.40;;;;;;;12.24;37.73;100190.84;4935255;28;20052;-57
2023/04/18 03:44:21;;;;;;;9.80;2.63;;;;;;;12.22;37.09;100179.56;4936049;28;20057;-57
2023/04/18 03:46:52;;;;;;;8.80;2.35;;;;;;;12.28;36.41;100184.63;4935708;28;20057;-57
2023/04/18 03:49:23;;;;;;;10.18;2.65;;;;;;;12.50;36.76;100177.97;4935537;28;20113;-57
2023/04/18 03:51:54;;;;;;;7.57;2.97;;;;;;;12.52;36.42;100165.66;4935055;28;20092;-57
2023/04/18 03:54:24;;;;;;;16.10;2.60;;;;;;;12.68;36.99;100170.50;4936483;28;20044;-57
2023/04/18 03:56:59;;;;;;;10.73;2.38;;;;;;;12.89;35.72;100169.94;4936274;28;25973;-58
2023/04/18 03:59:30;;;;;;;10.57;2.43;;;;;;;12.77;34.43;100174.66;4924753;28;20040;-57
2023/04/18 04:02:01;;;;;;;18.17;3.08;;;;;;;12.83;35.56;100175.38;4937149;28;20286;-57
2023/04/18 04:04:32;;;;;;;12.07;2.30;;;;;;;12.74;34.46;100165.13;4936666;28;20071;-58
2023/04/18 04:07:02;;;;;;;8.82;2.50;;;;;;;12.70;34.30;100169.59;4934911;28;20047;-58
2023/04/18 04:09:33;;;;;;;14.53;2.77;;;;;;;12.65;34.78;100170.59;4934599;28;20070;-57
2023/04/18 04:12:05;;;;;;;12.27;2.70;;;;;;;12.75;35.13;100166.81;4937080;28;20759;-57
2023/04/18 04:14:36;;;;;;;8.90;2.20;;;;;;;12.80;35.50;100162.31;4941087;28;20275;-55
2023/04/18 04:17:06;;;;;;;10.77;1.90;;;;;;;12.88;35.84;100168.22;4936850;28;20287;-57
2023/04/18 04:19:37;;;;;;;10.20;4.30;;;;;;;12.85;34.47;100163.03;4935204;28;20297;-57
2023/04/18 04:22:08;;;;;;;10.70;2.73;;;;;;;12.95;34.63;100163.66;4935869;28;20285;-57
2023/04/18 04:24:39;;;;;;;10.60;3.00;;;;;;;12.86;35.00;100164.78;4935676;28;20770;-57
2023/04/18 04:27:14;;;;;;;8.03;2.27;;;;;;;12.84;34.52;100160.50;4935043;28;20767;-57
2023/04/18 04:29:44;;;;;;;8.57;2.27;;;;;;;12.47;33.46;100151.81;4934585;28;20278;-58
2023/04/18 04:32:15;;;;;;;12.40;2.90;;;;;;;12.29;34.46;100149.69;4935149;28;20268;-56
2023/04/18 04:34:46;;;;;;;10.50;2.17;;;;;;;12.25;34.85;100148.03;4940652;28;20275;-57
2023/04/18 04:37:17;;;;;;;11.10;2.72;;;;;;;12.25;34.59;100146.28;4934731;28;20059;-57
2023/04/18 04:39:47;;;;;;;9.88;3.25;;;;;;;12.34;35.37;100150.44;4935874;28;20048;-57
2023/04/18 04:42:24;;;;;;;13.38;5.18;;;;;;;12.17;35.90;100089.75;4936864;28;20256;-57
2023/04/18 04:44:54;;;;;;;14.15;5.93;;;;;;;12.46;35.29;100144.88;4934510;28;20052;-57
2023/04/18 04:47:25;;;;;;;10.48;3.15;;;;;;;12.45;35.29;100143.13;4933898;28;20046;-57
2023/04/18 04:49:55;;;;;;;14.13;3.15;;;;;;;12.53;35.77;100150.84;4933469;28;20087;-57
2023/04/18 04:52:26;;;;;;;6.75;3.50;;;;;;;12.61;35.74;100143.63;4941055;28;21661;-57
2023/04/18 04:54:56;;;;;;;10.80;2.25;;;;;;;12.59;34.46;100139.31;4936713;28;20061;-57
2023/04/18 04:57:28;;;;;;;8.47;3.10;;;;;;;12.40;34.91;100139.78;4935153;28;20058;-57
2023/04/18 04:59:59;;;;;;;8.88;2.15;;;;;;;12.55;35.81;100140.28;4936830;28;20289;-57
2023/04/18 05:02:29;;;;;;;74.65;28.65;;;;;;;12.56;35.40;100139.41;4934188;28;20048;-58
2023/04/18 05:05:00;;;;;;;26.33;7.45;;;;;;;12.43;34.28;100142.34;4933224;28;20155;-57
2023/04/18 05:07:31;;;;;;;32.58;12.50;;;;;;;12.31;34.47;100137.41;4935737;28;20482;-57
2023/04/18 05:10:02;;;;;;;80.73;30.10;;;;;;;12.25;34.87;100145.41;4935042;28;20052;-57
2023/04/18 05:12:34;;;;;;;11.98;4.05;;;;;;;12.30;34.63;100146.16;4933505;28;20273;-57
2023/04/18 05:15:05;;;;;;;11.60;3.03;;;;;;;12.30;34.25;100151.41;4934219;28;20054;-57
2023/04/18 05:17:36;;;;;;;10.10;3.25;;;;;;;12.41;34.64;100151.16;4931183;28;21081;-57
2023/04/18 05:20:07;;;;;;;9.07;2.25;;;;;;;12.29;35.07;100084.19;4936894;28;20773;-58
2023/04/18 05:22:38;;;;;;;12.68;3.55;;;;;;;12.72;35.09;100140.69;4934113;28;20051;-57
2023/04/18 05:25:09;;;;;;;9.70;2.60;;;;;;;12.79;34.58;100139.63;4933878;28;20047;-57
2023/04/18 05:27:42;;;;;;;8.93;2.15;;;;;;;12.80;34.86;100133.47;4935566;28;20278;-57
2023/04/18 05:30:12;;;;;;;7.53;2.78;;;;;;;12.81;35.49;100135.22;4934732;28;20051;-58
2023/04/18 05:32:43;;;;;;;6.78;2.03;;;;;;;13.02;35.66;100133.72;4933249;28;20313;-57
2023/04/18 05:35:14;;;;;;;7.23;2.37;;;;;;;12.93;35.23;100129.63;4933643;28;20078;-58
2023/04/18 05:37:44;;;;;;;8.57;2.13;;;;;;;12.81;34.82;100145.69;4934886;28;20629;-57
2023/04/18 05:40:15;;;;;;;9.30;2.53;;;;;;;12.91;36.75;100136.66;4934654;28;20282;-57
2023/04/18 05:42:47;;;;;;;10.67;2.43;;;;;;;12.97;36.54;100140.03;4928376;28;20370;-57
2023/04/18 05:45:18;;;;;;;12.53;2.60;;;;;;;12.88;35.31;100131.53;4936317;28;20294;-57
2023/04/18 05:47:48;;;;;;;9.97;1.93;;;;;;;12.87;34.82;100134.16;4934848;28;20296;-57
2023/04/18 05:50:19;;;;;;;7.33;2.13;;;;;;;12.84;34.78;100135.13;4933088;28;20442;-57
2023/04/18 05:52:50;;;;;;;8.20;1.80;;;;;;;13.02;36.66;100122.38;4934124;28;20282;-57
2023/04/18 05:55:21;;;;;;;7.67;2.57;;;;;;;13.04;34.93;100131.09;4935248;28;20282;-57
2023/04/18 05:57:53;;;;;;;10.13;2.13;;;;;;;12.86;33.97;100128.06;4932773;28;20274;-57
2023/04/18 06:00:24;;;;;;;5.27;1.93;;;;;;;12.23;33.61;100131.50;4931658;28;20415;-57
2023/04/18 06:02:54;;;;;;;8.93;2.28;;;;;;;11.77;34.08;100119.50;4932269;28;20282;-58
2023/04/18 06:05:25;;;;;;;6.65;1.60;;;;;;;11.51;34.05;100123.59;4930912;28;20056;-56
2023/04/18 06:07:56;;;;;;;15.30;2.08;;;;;;;11.28;34.32;100121.44;4933841;28;20497;-57
2023/04/18 06:10:27;;;;;;;8.32;2.08;;;;;;;11.18;34.81;100128.66;4931529;28;20668;-57
2023/04/18 06:12:59;;;;;;;10.02;2.10;;;;;;;11.04;35.29;100120.22;4935124;28;20078;-57
2023/04/18 06:15:30;;;;;;;9.32;2.10;;;;;;;11.06;36.01;100128.03;4932918;28;20490;-57
2023/04/18 06:18:00;;;;;;;7.22;1.85;;;;;;;10.98;35.65;100125.56;4932772;28;20055;-57
2023/04/18 06:20:31;;;;;;;9.40;1.80;;;;;;;10.82;35.53;100130.25;4933844;28;20775;-58
2023/04/18 06:23:02;;;;;;;9.35;1.75;;;;;;;10.66;35.63;100129.69;4934155;28;20052;-58
2023/04/18 06:25:32;;;;;;;6.97;2.00;;;;;;;10.62;35.86;100133.25;4933480;28;20047;-57
2023/04/18 06:28:04;;;;;;;6.20;1.67;;;;;;;10.55;35.95;100126.41;4932801;28;20069;-57
2023/04/18 06:30:35;;;;;;;5.88;1.73;;;;;;;10.51;36.47;100135.22;4933770;28;20054;-57
2023/04/18 06:33:09;;;;;;;7.63;1.90;;;;;;;10.31;36.63;100096.38;4939582;28;20052;-58
2023/04/18 06:35:39;;;;;;;9.35;1.90;;;;;;;10.48;36.95;100127.41;4933578;28;20044;-57
2023/04/18 06:38:12;;;;;;;8.48;1.75;;;;;;;10.39;37.14;100127.59;4932614;28;20108;-57
2023/04/18 06:40:42;;;;;;;8.98;1.92;;;;;;;10.34;37.36;100133.75;4934585;28;20040;-57
2023/04/18 06:43:14;;;;;;;3.83;1.63;;;;;;;10.22;37.35;100127.84;4933220;28;20043;-58
2023/04/18 06:45:45;;;;;;;4.05;1.58;;;;;;;10.07;37.39;100135.03;4932009;28;20137;-56
2023/04/18 06:48:15;;;;;;;9.88;1.95;;;;;;;9.98;38.79;100129.09;4939873;28;20078;-57
2023/04/18 06:50:46;;;;;;;7.47;1.95;;;;;;;9.85;39.43;100124.06;4937096;28;20056;-57
2023/04/18 06:53:16;;;;;;;9.07;1.73;;;;;;;9.72;40.05;100127.75;4935768;28;20071;-57
2023/04/18 06:55:47;;;;;;;4.30;1.65;;;;;;;9.58;40.97;100137.53;4932573;28;20510;-57
2023/04/18 06:58:19;;;;;;;10.55;2.30;;;;;;;9.43;40.80;100136.00;4933902;28;20062;-57
2023/04/18 07:00:50;;;;;;;10.15;1.60;;;;;;;9.33;40.29;100130.03;4933149;28;20056;-57
2023/04/18 07:03:21;;;;;;;7.20;1.70;;;;;;;9.37;40.21;100136.09;4919384;28;20052;-57
2023/04/18 07:05:54;;;;;;;8.68;1.90;;;;;;;9.42;40.08;100140.34;4935601;28;20047;-56
2023/04/18 07:08:24;;;;;;;7.28;2.10;;;;;;;9.47;40.84;100148.13;4937224;28;20056;-57
2023/04/18 07:10:55;;;;;;;8.65;2.42;;;;;;;9.47;41.34;100138.53;4934531;28;20061;-57
2023/04/18 07:13:27;;;;;;;7.82;2.05;;;;;;;9.47;41.60;100133.34;4942975;28;20072;-57
2023/04/18 07:15:58;;;;;;;8.63;2.50;;;;;;;9.41;41.82;100133.44;4936109;28;20130;-57
2023/04/18 07:18:29;;;;;;;4.60;1.80;;;;;;;9.34;42.62;100137.00;4937641;28;20036;-57
2023/04/18 07:21:07;;;;;;;8.65;1.83;;;;;;;8.91;42.72;100106.28;4928333;28;20052;-57
2023/04/18 07:23:37;;;;;;;11.00;1.90;;;;;;;8.96;43.62;100142.66;4936209;28;20063;-57
2023/04/18 07:26:08;;;;;;;9.75;2.30;;;;;;;8.93;44.38;100137.50;4935055;28;20051;-57
2023/04/18 07:28:40;;;;;;;5.45;2.25;;;;;;;8.94;43.82;100142.72;4938153;28;20063;-57
2023/04/18 07:31:13;;;;;;;7.97;2.15;;;;;;;8.97;44.09;100147.88;4935192;28;20056;-56
2023/04/18 07:33:46;;;;;;;6.82;1.95;;;;;;;9.02;44.37;100146.06;4935209;28;20143;-57
2023/04/18 07:36:16;;;;;;;6.50;2.50;;;;;;;9.04;44.78;100148.69;4928944;28;20053;-57
2023/04/18 07:38:47;;;;;;;11.25;2.10;;;;;;;9.06;44.95;100149.50;4936869;28;20055;-56
2023/04/18 07:41:17;;;;;;;7.97;1.77;;;;;;;9.02;44.95;100156.50;4936609;28;20059;-57
2023/04/18 07:43:49;;;;;;;5.20;2.25;;;;;;;8.98;44.56;100154.81;4935973;28;20068;-57
2023/04/18 07:46:20;;;;;;;9.63;2.30;;;;;;;8.99;44.88;100145.28;4935079;28;20378;-57
2023/04/18 07:48:51;;;;;;;8.18;2.50;;;;;;;8.98;45.16;100149.59;4936476;28;20588;-57
2023/04/18 07:51:24;;;;;;;10.95;2.10;;;;;;;8.91;44.81;100142.75;4937300;28;20105;-57
2023/04/18 07:53:54;;;;;;;7.43;2.20;;;;;;;8.92;44.86;100149.69;4935455;28;20043;-57
2023/04/18 07:56:25;;;;;;;9.80;2.00;;;;;;;8.81;44.97;100146.31;4936999;28;20954;-57
2023/04/18 07:58:57;;;;;;;8.27;1.95;;;;;;;8.74;44.92;100144.69;4933313;28;20069;-57
2023/04/18 08:01:27;;;;;;;7.50;2.00;;;;;;;8.71;45.35;100160.31;4935780;28;20075;-57
2023/04/18 08:04:00;;;;;;;6.85;2.15;;;;;;;8.62;45.48;100150.88;4935070;28;20055;-57
2023/04/18 08:06:35;;;;;;;10.93;2.35;;;;;;;8.55;45.47;100147.47;4936911;28;20081;-57
2023/04/18 08:09:05;;;;;;;8.82;2.10;;;;;;;8.43;45.30;100152.78;4934332;28;20057;-57
2023/04/18 08:11:37;;;;;;;6.25;2.00;;;;;;;8.41;45.54;100146.72;4939797;28;20873;-57
2023/04/18 08:14:09;;;;;;;8.10;2.10;;;;;;;8.33;45.12;100148.50;4935615;28;20142;-57
2023/04/18 08:16:40;;;;;;;9.85;2.40;;;;;;;8.16;45.25;100140.84;4936265;28;20047;-57
2023/04/18 08:19:11;;;;;;;8.40;1.95;;;;;;;8.33;46.38;100149.38;4935093;28;20067;-57
2023/04/18 08:21:42;;;;;;;9.98;2.42;;;;;;;8.19;46.13;100152.09;4934629;28;20423;-58
2023/04/18 08:24:12;;;;;;;9.93;2.40;;;;;;;8.08;46.07;100159.13;4936408;28;20055;-58
2023/04/18 08:26:43;;;;;;;8.25;2.30;;;;;;;7.86;45.83;100160.16;4936167;28;20074;-58
2023/04/18 08:29:15;;;;;;;6.05;1.85;;;;;;;7.64;45.84;100141.22;4934717;28;20044;-57
2023/04/18 08:31:45;;;;;;;6.00;2.30;;;;;;;7.71;45.51;100154.22;4931677;28;20049;-57
2023/04/18 08:34:16;;;;;;;6.35;1.90;;;;;;;7.68;46.33;100149.00;4940532;28;20044;-58
2023/04/18 08:36:47;;;;;;;5.15;1.90;;;;;;;7.74;46.20;100138.56;4936480;28;20048;-57
2023/04/18 08:39:17;;;;;;;10.70;2.40;;;;;;;7.67;46.52;100147.28;4935318;28;20059;-58
2023/04/18 08:41:54;;;;;;;8.75;2.45;;;;;;;7.85;47.88;100146.28;4935249;28;20121;-58
2023/04/18 08:44:26;;;;;;;11.18;2.15;;;;;;;7.82;46.73;100109.03;4935288;28;20048;-57
2023/04/18 08:46:58;;;;;;;10.38;2.60;;;;;;;7.64;46.85;100105.69;4928130;28;20052;-58
2023/04/18 08:49:29;;;;;;;6.25;1.88;;;;;;;8.01;47.47;100141.81;4934979;28;20576;-58
2023/04/18 08:52:01;;;;;;;5.20;1.90;;;;;;;8.09;47.05;100149.59;4934130;28;20067;-58
2023/04/18 08:54:32;;;;;;;8.57;1.90;;;;;;;7.74;46.04;100148.97;4935805;28;20413;-58
2023/04/18 08:57:06;;;;;;;6.32;1.98;;;;;;;7.38;46.21;100149.19;4934769;28;20172;-58
2023/04/18 08:59:40;;;;;;;9.95;1.90;;;;;;;6.90;46.71;100137.25;4924541;28;20068;-58
2023/04/18 09:02:14;;;;;;;6.93;2.13;;;;;;;6.72;47.12;100157.25;4934268;28;20508;-58
2023/04/18 09:04:48;;;;;;;6.38;2.00;;;;;;;6.77;48.22;100156.34;4935630;28;20466;-58
2023/04/18 09:07:19;;;;;;;7.32;2.00;;;;;;;6.62;47.76;100151.19;4924045;28;20494;-58
2023/04/18 09:09:56;;;;;;;4.85;2.17;;;;;;;6.26;48.26;100160.75;4933450;28;20055;-58
2023/04/18 09:12:28;;;;;;;7.72;2.10;;;;;;;5.98;50.08;100121.84;4928471;28;20071;-57
2023/04/18 09:15:11;;;;;;;5.97;1.90;;;;;;;5.83;49.41;100129.59;4935607;28;20055;-58
2023/04/18 09:17:49;;;;;;;7.07;2.30;;;;;;;5.76;49.88;100151.19;4924217;28;20066;-58
2023/04/18 09:20:39;;;;;;;8.27;3.45;;;;;;;5.95;53.54;100146.91;4925379;28;20051;-58
2023/04/18 09:23:13;;;;;;;7.25;3.00;;;;;;;5.98;55.51;100147.78;4924577;28;20047;-58
2023/04/18 09:25:52;;;;;;;12.80;5.95;;;;;;;5.86;56.60;100126.97;4933693;28;20128;-58
2023/04/18 09:28:27;;;;;;;20.30;12.23;;;;;;;6.07;57.54;100152.13;4922909;28;20053;-56
2023/04/18 09:31:07;;;;;;;45.42;23.33;;;;;;;5.82;55.06;100161.56;4935495;28;20139;-58
2023/04/18 09:33:41;;;;;;;14.63;8.07;;;;;;;5.41;55.58;100151.97;4924371;28;20055;-58
2023/04/18 09:36:23;;;;;;;12.38;5.30;;;;;;;5.02;55.68;100132.84;4934086;28;20655;-57
2023/04/18 09:38:55;;;;;;;14.05;7.32;;;;;;;4.71;56.15;100155.97;4922465;28;20044;-57
2023/04/18 09:41:29;;;;;;;16.55;7.68;;;;;;;4.23;58.08;100162.56;4924289;28;20059;-57
2023/04/18 09:44:10;;;;;;;11.68;5.30;;;;;;;3.93;59.06;100151.97;4935543;28;20069;-57
2023/04/18 09:46:48;;;;;;;21.05;9.85;;;;;;;3.56;60.85;100159.38;4923449;28;20155;-58
2023/04/18 09:49:19;;;;;;;18.08;7.85;;;;;;;3.42;61.00;100170.44;4925095;28;20104;-58
2023/04/18 09:51:53;;;;;;;13.05;6.55;;;;;;;3.29;61.46;100163.38;4935289;28;20539;-57
2023/04/18 09:54:30;;;;;;;5.75;3.38;;;;;;;3.11;62.12;100164.03;4934514;28;20048;-57
2023/04/18 09:57:04;;;;;;;11.75;3.42;;;;;;;2.91;62.95;100171.53;4923246;28;20071;-57
2023/04/18 09:59:38;;;;;;;10.52;2.85;;;;;;;2.65;64.05;100172.91;4935545;28;20525;-57
2023/04/18 10:02:19;;;;;;;13.25;4.55;;;;;;;2.57;64.46;100176.22;4923627;28;20059;-57
2023/04/18 10:04:51;;;;;;;15.10;3.80;;;;;;;2.20;64.84;100133.56;4923816;28;20066;-56
2023/04/18 10:07:25;;;;;;;5.28;2.78;;;;;;;2.27;65.61;100165.44;4934057;28;20047;-56
2023/04/18 10:09:56;;;;;;;6.25;2.50;;;;;;;2.14;66.05;100170.41;4928842;28;20048;-56
2023/04/18 10:12:28;;;;;;;51.80;18.05;;;;;;;1.99;66.79;100170.16;4936523;28;20082;-56
2023/04/18 10:15:02;;;;;;;17.70;7.65;;;;;;;1.83;67.26;100173.31;4934379;28;20063;-56
2023/04/18 10:17:43;;;;;;;11.35;3.50;;;;;;;1.70;67.68;100167.09;4934512;28;20043;-56
2023/04/18 10:20:30;;;;;;;3.65;2.30;;;;;;;1.57;68.63;100171.13;4912835;28;20085;-56
2023/04/18 10:23:35;;;;;;;19.40;5.95;;;;;;;1.46;69.30;100182.94;4932603;28;20060;-56
2023/04/18 10:26:07;;;;;;;6.05;2.40;;;;;;;1.25;69.33;100158.53;4928047;28;20543;-55
2023/04/18 10:28:59;;;;;;;8.48;3.33;;;;;;;1.38;69.38;100179.34;4934432;28;20139;-56
2023/04/18 10:31:40;;;;;;;8.13;3.28;;;;;;;1.34;69.38;100182.69;4919950;28;20100;-56
2023/04/18 10:34:18;;;;;;;10.68;2.92;;;;;;;1.28;69.26;100181.75;4922956;28;20043;-56
2023/04/18 10:37:06;;;;;;;17.38;7.82;;;;;;;1.22;69.79;100179.06;4926533;28;20066;-56
2023/04/18 10:39:56;;;;;;;14.88;6.20;;;;;;;1.14;70.19;100185.72;4927340;28;20490;-55
2023/04/18 10:42:59;;;;;;;13.30;6.18;;;;;;;1.06;70.63;100192.44;4915329;28;20151;-56
2023/04/18 10:45:35;;;;;;;10.05;4.10;;;;;;;0.97;71.08;100192.22;4920054;28;20080;-55
2023/04/18 10:48:28;;;;;;;8.88;2.55;;;;;;;0.87;71.48;100186.03;4935544;28;20065;-56
2023/04/18 10:51:19;;;;;;;23.52;9.50;;;;;;;0.83;71.14;100195.38;4926592;28;20059;-56
2023/04/18 10:53:59;;;;;;;11.05;4.47;;;;;;;0.80;71.13;100189.28;4926065;28;20074;-56
2023/04/18 10:56:32;;;;;;;8.43;4.03;;;;;;;0.81;70.99;100191.03;4927760;28;20059;-56
2023/04/18 10:59:04;;;;;;;29.63;12.20;;;;;;;0.78;70.09;100168.69;4936766;28;20103;-56
2023/04/18 11:01:38;;;;;;;20.58;6.88;;;;;;;0.85;69.94;100178.28;4936193;28;20052;-56
2023/04/18 11:04:18;;;;;;;16.23;5.35;;;;;;;0.90;69.85;100174.94;4926905;28;20127;-56
2023/04/18 11:06:54;;;;;;;12.80;4.70;;;;;;;1.06;69.49;100177.00;4927194;28;20142;-56
2023/04/18 11:09:28;;;;;;;17.17;6.30;;;;;;;1.16;69.87;100184.06;4926563;28;20508;-56
2023/04/18 11:12:07;;;;;;;13.80;6.30;;;;;;;1.17;70.17;100183.22;4938265;28;20542;-56
2023/04/18 11:14:43;;;;;;;100.70;37.05;;;;;;;1.13;70.85;100178.88;4928088;28;20052;-56
2023/04/18 11:17:18;;;;;;;35.30;17.02;;;;;;;1.06;71.02;100182.16;4936892;28;20105;-56
2023/04/18 11:19:49;;;;;;;11.98;4.97;;;;;;;0.90;71.62;100175.81;4926103;28;20058;-56
2023/04/18 11:22:24;;;;;;;11.27;5.50;;;;;;;0.86;72.19;100182.59;4937972;28;20056;-56
2023/04/18 11:25:01;;;;;;;14.38;5.82;;;;;;;0.77;72.35;100179.81;4936536;28;21040;-56
2023/04/18 11:27:32;;;;;;;13.70;6.68;;;;;;;0.60;72.80;100186.28;4926737;28;20078;-56
2023/04/18 11:30:02;;;;;;;13.38;6.38;;;;;;;0.56;73.55;100179.34;4937283;28;20052;-56
2023/04/18 11:32:36;;;;;;;15.55;7.93;;;;;;;0.53;73.77;100171.56;4921515;28;20807;-56
2023/04/18 11:35:08;;;;;;;17.70;7.63;;;;;;;0.57;73.97;100176.78;4929888;28;20053;-55
2023/04/18 11:37:44;;;;;;;18.80;8.13;;;;;;;0.59;73.68;100179.41;4936541;28;20056;-56
2023/04/18 11:40:17;;;;;;;18.60;9.70;;;;;;;0.50;73.64;100184.34;4937517;28;20055;-56
2023/04/18 11:42:51;;;;;;;19.40;10.38;;;;;;;0.47;74.00;100173.97;4927303;28;20051;-56
2023/04/18 11:45:21;;;;;;;19.08;8.40;;;;;;;0.34;74.39;100178.84;4936931;28;20478;-56
2023/04/18 11:47:57;;;;;;;20.42;8.35;;;;;;;0.26;74.78;100175.22;4934625;28;20044;-56
2023/04/18 11:50:28;;;;;;;18.73;8.50;;;;;;;0.21;75.21;100171.69;4928127;28;20055;-56